Time;durP1;ratioP1;P1;durP2;ratioP2;P2;SDS_P1;SDS_P2;PMS_P1;PMS_P2;Temp;Humidity;BMP_temperature;BMP_pressure;BME280_temperature;BME280_humidity;BME280_pressure;Samples;Min_cycle;Max_cycle;Signal;HPM_P1;HPM_P2
2023/10/19 00:00:48;;;;;;;3.60;2.40;;;21.10;55.80;;;;;;5057816;28;20445;-66
2023/10/19 00:03:15;;;;;;;3.37;2.33;;;21.20;55.90;;;;;;5059831;28;20879;-67
2023/10/19 00:05:45;;;;;;;2.50;2.10;;;21.20;55.90;;;;;;5059727;28;20421;-66
2023/10/19 00:10:46;;;;;;;2.90;2.60;;;21.20;55.90;;;;;;5060117;28;20496;-67
2023/10/19 00:13:13;;;;;;;2.70;1.83;;;21.20;55.90;;;;;;5059155;28;20394;-67
2023/10/19 00:15:40;;;;;;;3.50;2.47;;;21.20;55.80;;;;;;5058774;28;20878;-66
2023/10/19 00:23:13;;;;;;;3.53;2.80;;;21.20;55.80;;;;;;5039304;28;20896;-67
2023/10/19 00:25:42;;;;;;;2.87;2.47;;;21.20;55.90;;;;;;5038849;28;20426;-66
2023/10/19 00:28:08;;;;;;;3.20;2.50;;;21.20;55.90;;;;;;5038439;28;20414;-65
2023/10/19 00:30:37;;;;;;;2.70;2.50;;;21.20;55.80;;;;;;5039288;28;20979;-67
2023/10/19 00:33:16;;;;;;;2.67;2.40;;;21.20;55.90;;;;;;5038545;28;20434;-67
2023/10/19 00:35:56;;;;;;;2.30;2.00;;;21.10;55.80;;;;;;5038553;28;20925;-66
2023/10/19 00:40:53;;;;;;;3.40;2.73;;;21.10;55.80;;;;;;5039408;28;20478;-67
2023/10/19 00:43:28;;;;;;;3.30;2.60;;;21.20;55.90;;;;;;5039253;28;20414;-66
2023/10/19 00:45:53;;;;;;;3.40;2.40;;;21.10;55.80;;;;;;5039210;28;20442;-67
2023/10/19 00:48:23;;;;;;;3.03;2.30;;;21.10;55.80;;;;;;5038028;28;20442;-66
2023/10/19 00:50:53;;;;;;;4.73;2.60;;;21.10;55.80;;;;;;5038100;28;20167;-67
2023/10/19 00:53:18;;;;;;;2.77;2.33;;;21.20;55.90;;;;;;5038544;28;20418;-67
2023/10/19 00:55:45;;;;;;;2.70;2.00;;;21.10;55.80;;;;;;5038546;28;20517;-67
2023/10/19 00:58:17;;;;;;;2.90;2.67;;;21.10;55.80;;;;;;5038198;28;20705;-65
2023/10/19 01:00:44;;;;;;;2.80;2.43;;;21.10;55.90;;;;;;5054117;28;21029;-66
2023/10/19 01:03:16;;;;;;;3.03;2.70;;;21.10;55.80;;;;;;5058254;28;20500;-66
2023/10/19 01:05:47;;;;;;;3.60;2.80;;;21.10;55.80;;;;;;5058065;28;20433;-66
2023/10/19 01:08:23;;;;;;;3.57;2.73;;;21.10;55.90;;;;;;5058429;28;20404;-67
2023/10/19 01:10:52;;;;;;;2.87;2.00;;;21.10;55.90;;;;;;5058621;28;20390;-66
2023/10/19 01:13:18;;;;;;;3.13;2.00;;;21.10;55.80;;;;;;5058295;28;20803;-67
2023/10/19 01:15:49;;;;;;;2.10;1.90;;;21.10;55.80;;;;;;5040935;28;20477;-65
2023/10/19 01:18:16;;;;;;;2.93;2.30;;;21.10;55.90;;;;;;5057445;28;20782;-67
2023/10/19 01:20:50;;;;;;;4.30;2.90;;;21.10;55.90;;;;;;5058418;28;20463;-65
2023/10/19 01:28:58;;;;;;;2.60;2.40;;;21.10;55.90;;;;;;5049351;28;20521;-65
2023/10/19 01:34:03;;;;;;;3.17;2.23;;;21.10;55.90;;;;;;5038039;28;20940;-66
2023/10/19 01:36:32;;;;;;;3.23;2.43;;;21.10;55.90;;;;;;5037551;28;20966;-66
2023/10/19 01:39:02;;;;;;;2.80;2.43;;;21.10;55.90;;;;;;5037228;28;20477;-66
2023/10/19 01:41:30;;;;;;;2.93;2.63;;;21.10;55.90;;;;;;5037702;28;20450;-66
2023/10/19 01:44:04;;;;;;;2.50;1.83;;;21.10;55.90;;;;;;5053006;28;20449;-66
2023/10/19 01:46:36;;;;;;;2.43;2.20;;;21.10;55.90;;;;;;5057304;28;20422;-66
2023/10/19 01:49:03;;;;;;;2.90;2.50;;;21.10;55.90;;;;;;5056970;28;20887;-66
2023/10/19 01:51:32;;;;;;;2.93;2.63;;;21.10;55.90;;;;;;5056633;28;20425;-65
2023/10/19 01:54:00;;;;;;;3.17;2.27;;;21.10;55.90;;;;;;5057004;28;20473;-66
2023/10/19 01:56:26;;;;;;;3.87;2.97;;;21.10;55.90;;;;;;5057435;28;21015;-66
2023/10/19 01:58:54;;;;;;;2.60;2.40;;;21.10;55.90;;;;;;5057318;28;20425;-66
2023/10/19 02:01:20;;;;;;;3.90;2.50;;;21.10;55.90;;;;;;5057127;28;20448;-66
2023/10/19 02:03:55;;;;;;;2.50;2.27;;;21.10;55.90;;;;;;5057101;28;20402;-66
2023/10/19 02:06:26;;;;;;;3.00;2.37;;;21.10;55.90;;;;;;5047349;28;20443;-65
2023/10/19 02:09:16;;;;;;;2.43;2.07;;;21.10;55.90;;;;;;5037366;28;20460;-65
2023/10/19 02:11:42;;;;;;;3.00;2.63;;;21.10;55.90;;;;;;5037091;28;20394;-62
2023/10/19 02:14:14;;;;;;;3.90;2.83;;;21.10;55.90;;;;;;5036861;28;20487;-66
2023/10/19 02:16:52;;;;;;;3.00;2.70;;;21.10;55.90;;;;;;5037319;28;20390;-65
2023/10/19 02:19:22;;;;;;;2.90;2.50;;;21.10;55.90;;;;;;5036547;28;20429;-66
2023/10/19 02:21:56;;;;;;;2.53;2.30;;;21.00;55.80;;;;;;5051695;28;20971;-66
2023/10/19 02:24:22;;;;;;;2.90;2.33;;;21.00;55.80;;;;;;5055982;28;20499;-66
2023/10/19 02:26:51;;;;;;;3.60;2.60;;;21.00;55.80;;;;;;5056295;28;20413;-66
2023/10/19 02:29:17;;;;;;;3.93;2.70;;;21.00;55.80;;;;;;5056078;28;20706;-65
2023/10/19 02:31:43;;;;;;;3.53;2.80;;;21.00;55.80;;;;;;5056685;28;20449;-63
2023/10/19 02:34:11;;;;;;;3.67;2.80;;;21.00;55.80;;;;;;5050433;28;20485;-65
2023/10/19 02:36:38;;;;;;;3.77;2.97;;;21.00;55.80;;;;;;5036301;28;20235;-66
2023/10/19 02:39:09;;;;;;;2.53;2.30;;;21.00;55.80;;;;;;5036561;28;20413;-66
2023/10/19 02:41:35;;;;;;;3.23;2.40;;;21.10;55.90;;;;;;5034726;28;20446;-66
2023/10/19 02:46:34;;;;;;;2.60;2.40;;;21.00;55.80;;;;;;5036896;28;20513;-66
2023/10/19 02:49:04;;;;;;;2.27;2.00;;;21.00;55.90;;;;;;5040768;28;20490;-66
2023/10/19 02:51:30;;;;;;;2.40;2.17;;;21.00;55.80;;;;;;5056803;28;20500;-66
2023/10/19 02:54:00;;;;;;;2.47;2.23;;;21.00;55.80;;;;;;5056365;28;20435;-65
2023/10/19 02:56:26;;;;;;;2.63;2.20;;;21.00;55.90;;;;;;5056762;28;20765;-66
2023/10/19 02:58:52;;;;;;;4.00;3.53;;;21.00;55.80;;;;;;5056491;28;20406;-66
2023/10/19 03:01:22;;;;;;;2.73;2.37;;;21.00;55.80;;;;;;5056318;28;20495;-66
2023/10/19 03:03:50;;;;;;;2.43;2.23;;;21.00;55.80;;;;;;5055009;28;20170;-66
2023/10/19 03:06:20;;;;;;;1.93;1.80;;;21.00;55.90;;;;;;5055725;28;20435;-66
2023/10/19 03:08:47;;;;;;;2.40;2.20;;;21.00;55.80;;;;;;5056020;28;20401;-66
2023/10/19 03:11:13;;;;;;;3.17;2.43;;;21.00;55.80;;;;;;5056378;28;20409;-66
2023/10/19 03:13:41;;;;;;;2.27;1.90;;;21.00;55.80;;;;;;5056197;28;20410;-66
2023/10/19 03:16:08;;;;;;;2.63;2.07;;;21.00;55.90;;;;;;5056407;28;20979;-66
2023/10/19 03:18:35;;;;;;;2.80;1.97;;;21.00;55.80;;;;;;5055492;28;20514;-66
2023/10/19 03:21:05;;;;;;;2.50;2.30;;;21.00;55.80;;;;;;5056090;28;20967;-66
2023/10/19 03:23:34;;;;;;;2.73;2.37;;;21.00;55.80;;;;;;5055733;28;20775;-66
2023/10/19 03:28:45;;;;;;;2.43;2.00;;;21.00;55.80;;;;;;5056255;28;20392;-66
2023/10/19 03:31:17;;;;;;;2.37;2.10;;;21.00;55.90;;;;;;5051162;28;20523;-66
2023/10/19 03:33:53;;;;;;;2.60;2.40;;;21.00;55.80;;;;;;5047466;28;20417;-65
2023/10/19 03:36:20;;;;;;;2.20;2.00;;;21.00;55.80;;;;;;5042870;28;20925;-66
2023/10/19 03:38:46;;;;;;;3.50;2.50;;;21.00;55.90;;;;;;5039907;28;20440;-66
2023/10/19 03:41:12;;;;;;;2.77;2.43;;;21.00;55.80;;;;;;5039501;28;20458;-65
2023/10/19 03:43:41;;;;;;;3.30;2.60;;;21.00;55.80;;;;;;5038760;28;20168;-66
2023/10/19 03:46:28;;;;;;;3.37;2.50;;;21.00;55.80;;;;;;5049643;28;20429;-66
2023/10/19 03:48:58;;;;;;;2.63;2.20;;;21.00;55.80;;;;;;5059331;28;20954;-66
2023/10/19 03:51:26;;;;;;;3.90;2.60;;;21.00;55.80;;;;;;5059732;28;20484;-66
2023/10/19 03:53:58;;;;;;;2.77;2.57;;;21.00;55.80;;;;;;5059508;28;20413;-66
2023/10/19 03:56:24;;;;;;;2.53;2.30;;;21.00;55.90;;;;;;5059034;28;20450;-66
2023/10/19 03:58:50;;;;;;;2.50;2.23;;;21.00;55.80;;;;;;5059627;28;20916;-66
2023/10/19 04:01:19;;;;;;;2.90;2.40;;;21.00;55.80;;;;;;5044166;28;20450;-66
2023/10/19 04:03:45;;;;;;;1.90;1.80;;;21.00;55.80;;;;;;5039065;28;20417;-65
2023/10/19 04:06:14;;;;;;;2.57;2.37;;;21.00;55.80;;;;;;5039769;28;20406;-66
2023/10/19 04:08:42;;;;;;;2.73;2.20;;;21.00;55.80;;;;;;5038914;28;20444;-66
2023/10/19 04:11:08;;;;;;;2.63;2.43;;;21.00;55.80;;;;;;5038922;28;20472;-66
2023/10/19 04:13:36;;;;;;;2.37;1.97;;;21.00;55.90;;;;;;5041242;28;20445;-66
2023/10/19 04:16:02;;;;;;;2.97;2.67;;;21.00;55.80;;;;;;5059169;28;20413;-65
2023/10/19 04:18:27;;;;;;;2.63;2.10;;;21.00;55.90;;;;;;5041870;28;20508;-66
2023/10/19 04:23:20;;;;;;;2.20;1.67;;;21.00;55.90;;;;;;5039187;28;20172;-66
2023/10/19 04:25:47;;;;;;;2.80;2.53;;;21.00;55.90;;;;;;5038836;28;20187;-66
2023/10/19 04:28:13;;;;;;;2.47;2.27;;;21.00;55.90;;;;;;5038154;28;20854;-66
2023/10/19 04:30:39;;;;;;;2.30;2.10;;;21.00;55.90;;;;;;5038558;28;20436;-65
2023/10/19 04:33:09;;;;;;;2.43;2.13;;;21.00;55.90;;;;;;5038721;28;20936;-66
2023/10/19 04:35:41;;;;;;;2.47;2.10;;;21.00;55.90;;;;;;5039078;28;20433;-66
2023/10/19 04:38:06;;;;;;;2.80;2.50;;;21.00;55.90;;;;;;5039226;28;20478;-67
2023/10/19 04:40:32;;;;;;;2.60;2.17;;;21.00;55.90;;;;;;5038268;28;20963;-63
2023/10/19 04:42:58;;;;;;;2.77;2.40;;;21.00;55.80;;;;;;5038889;28;20172;-65
2023/10/19 04:45:23;;;;;;;2.90;2.70;;;21.00;55.80;;;;;;5050603;28;20203;-66
2023/10/19 04:47:52;;;;;;;3.00;2.30;;;21.00;55.80;;;;;;5057296;28;20170;-66
2023/10/19 04:50:18;;;;;;;3.10;2.40;;;21.00;55.80;;;;;;5048047;28;20194;-66
2023/10/19 04:52:44;;;;;;;2.53;2.00;;;21.00;55.80;;;;;;5038446;28;20414;-64
2023/10/19 04:55:10;;;;;;;2.30;2.10;;;21.00;55.80;;;;;;5037596;28;20441;-66
2023/10/19 04:57:35;;;;;;;2.73;2.30;;;21.00;55.80;;;;;;5037748;28;20207;-66
2023/10/19 05:00:01;;;;;;;2.30;2.10;;;21.00;55.80;;;;;;5050878;28;20178;-64
2023/10/19 05:02:27;;;;;;;2.33;1.93;;;21.00;55.80;;;;;;5057103;28;20229;-65
2023/10/19 05:04:53;;;;;;;3.10;2.40;;;21.00;55.80;;;;;;5055155;28;20560;-66
2023/10/19 05:07:19;;;;;;;2.67;1.80;;;21.00;55.80;;;;;;5056666;28;20167;-66
2023/10/19 05:09:45;;;;;;;2.30;2.10;;;21.00;55.80;;;;;;5057087;28;20424;-65
2023/10/19 05:12:14;;;;;;;2.10;1.90;;;21.00;55.80;;;;;;5057090;28;20195;-64
2023/10/19 05:14:39;;;;;;;2.10;1.90;;;21.00;55.80;;;;;;5056496;28;20433;-66
2023/10/19 05:17:05;;;;;;;2.27;2.07;;;21.00;55.80;;;;;;5056462;28;20425;-66
2023/10/19 05:19:32;;;;;;;2.60;2.40;;;21.00;55.80;;;;;;5056723;28;20195;-67
2023/10/19 05:21:59;;;;;;;3.30;2.30;;;21.00;55.80;;;;;;5057074;28;20944;-64
2023/10/19 05:24:25;;;;;;;3.83;2.30;;;21.00;55.80;;;;;;5056062;28;20425;-66
2023/10/19 05:26:53;;;;;;;2.50;2.30;;;21.00;55.80;;;;;;5056567;28;20421;-65
2023/10/19 05:29:19;;;;;;;2.83;2.57;;;21.00;56.40;;;;;;5056753;28;20539;-66
2023/10/19 05:31:45;;;;;;;2.40;2.20;;;21.00;55.80;;;;;;5056626;28;20799;-64
2023/10/19 05:34:11;;;;;;;2.57;2.27;;;21.00;55.90;;;;;;5056090;28;20438;-67
2023/10/19 05:36:36;;;;;;;2.77;1.97;;;21.00;55.90;;;;;;5057089;28;20202;-65
2023/10/19 05:39:04;;;;;;;2.40;1.90;;;21.00;55.80;;;;;;5055749;28;20238;-66
2023/10/19 05:41:31;;;;;;;2.20;2.00;;;21.00;55.90;;;;;;5056862;28;20214;-67
2023/10/19 05:43:57;;;;;;;2.20;2.00;;;21.00;55.80;;;;;;5056751;28;20461;-67
2023/10/19 05:46:24;;;;;;;2.37;2.00;;;21.00;55.80;;;;;;5056321;28;20953;-67
2023/10/19 05:48:51;;;;;;;2.70;2.30;;;21.10;55.90;;;;;;5056000;28;20417;-65
2023/10/19 05:51:17;;;;;;;6.70;2.63;;;21.10;55.90;;;;;;5055585;28;20414;-66
2023/10/19 05:53:44;;;;;;;2.87;2.20;;;21.10;55.90;;;;;;5055825;28;20406;-66
2023/10/19 05:56:10;;;;;;;2.50;2.00;;;21.10;55.90;;;;;;5055913;28;20478;-64
2023/10/19 05:58:36;;;;;;;2.10;1.90;;;21.10;55.80;;;;;;5054201;28;20951;-65
2023/10/19 06:01:02;;;;;;;2.30;2.00;;;21.10;55.80;;;;;;5055547;28;20461;-65
2023/10/19 06:03:28;;;;;;;2.20;2.00;;;21.10;55.80;;;;;;5055814;28;20536;-66
2023/10/19 06:05:56;;;;;;;2.60;2.13;;;21.10;55.90;;;;;;5055682;28;20191;-66
2023/10/19 06:08:22;;;;;;;2.50;2.10;;;21.10;55.80;;;;;;5055776;28;20409;-67
2023/10/19 06:10:52;;;;;;;2.40;2.20;;;21.10;55.80;;;;;;5055692;28;20409;-65
2023/10/19 06:13:18;;;;;;;2.90;2.47;;;21.10;55.80;;;;;;5055212;28;20474;-66
2023/10/19 06:15:43;;;;;;;2.00;1.90;;;21.10;55.80;;;;;;5055764;28;20512;-66
2023/10/19 06:18:10;;;;;;;3.53;2.13;;;21.10;55.80;;;;;;5055056;28;20254;-66
2023/10/19 06:20:43;;;;;;;2.50;2.30;;;21.10;55.80;;;;;;5055714;28;20596;-65
2023/10/19 06:23:11;;;;;;;2.87;2.23;;;21.10;55.80;;;;;;5055330;28;20447;-67
2023/10/19 06:25:37;;;;;;;2.57;2.37;;;21.10;55.80;;;;;;5055159;28;20453;-67
2023/10/19 06:28:03;;;;;;;2.20;2.00;;;21.10;55.80;;;;;;5056027;28;20449;-66
2023/10/19 06:30:29;;;;;;;2.70;2.33;;;21.20;55.90;;;;;;5055290;28;20179;-65
2023/10/19 06:33:00;;;;;;;2.93;2.63;;;21.10;55.80;;;;;;5054853;28;20413;-67
2023/10/19 06:35:27;;;;;;;2.63;2.20;;;21.20;55.90;;;;;;5055196;28;20241;-66
2023/10/19 06:37:56;;;;;;;2.30;2.00;;;21.20;55.90;;;;;;5055104;28;20414;-67
2023/10/19 06:40:22;;;;;;;2.40;2.20;;;21.20;55.90;;;;;;5055154;28;20413;-67
2023/10/19 06:42:49;;;;;;;2.87;1.90;;;21.20;55.90;;;;;;5053908;28;20421;-66
2023/10/19 06:45:18;;;;;;;3.50;2.30;;;21.20;55.90;;;;;;5055150;28;20203;-65
2023/10/19 06:47:49;;;;;;;2.80;2.23;;;21.20;55.90;;;;;;5053772;28;20942;-65
2023/10/19 06:50:17;;;;;;;2.50;2.30;;;21.20;55.90;;;;;;5055531;28;20404;-65
2023/10/19 06:52:44;;;;;;;3.10;2.23;;;21.20;55.90;;;;;;5055005;28;20414;-67
2023/10/19 06:55:13;;;;;;;2.40;2.20;;;21.20;55.90;;;;;;5055152;28;20504;-67
2023/10/19 06:57:45;;;;;;;2.10;1.90;;;21.20;55.90;;;;;;5055283;28;20440;-66
2023/10/19 07:00:21;;;;;;;2.30;2.10;;;21.20;55.90;;;;;;5055355;28;20436;-65
2023/10/19 07:02:50;;;;;;;2.50;2.20;;;21.20;55.90;;;;;;5055001;28;20903;-65
2023/10/19 07:05:29;;;;;;;2.30;1.87;;;21.20;55.90;;;;;;5055674;28;20444;-66
2023/10/19 07:07:56;;;;;;;2.80;2.60;;;21.10;55.80;;;;;;5055042;28;20384;-67
2023/10/19 07:10:23;;;;;;;2.70;2.40;;;21.20;55.90;;;;;;5057587;28;20480;-66
2023/10/19 07:12:53;;;;;;;2.33;2.10;;;21.20;55.90;;;;;;5057444;28;20413;-66
2023/10/19 07:15:19;;;;;;;2.40;2.20;;;21.20;55.90;;;;;;5059358;28;20512;-67
2023/10/19 07:17:46;;;;;;;4.53;2.50;;;21.10;55.80;;;;;;5059217;28;20859;-65
2023/10/19 07:20:31;;;;;;;2.10;1.90;;;21.10;55.80;;;;;;5057606;28;20881;-66
2023/10/19 07:25:43;;;;;;;2.60;2.40;;;21.20;55.90;;;;;;5058919;28;20475;-67
2023/10/19 07:28:10;;;;;;;2.90;2.27;;;21.10;55.90;;;;;;5058656;28;20406;-67
2023/10/19 07:30:36;;;;;;;3.60;2.17;;;21.10;55.90;;;;;;5057852;28;20718;-66
2023/10/19 07:33:04;;;;;;;1.93;1.83;;;21.10;55.90;;;;;;5058995;28;20440;-65
2023/10/19 07:35:34;;;;;;;2.20;2.00;;;21.10;55.90;;;;;;5058203;28;20421;-65
2023/10/19 07:38:01;;;;;;;3.37;2.60;;;21.10;55.90;;;;;;5058363;28;20437;-66
2023/10/19 07:40:27;;;;;;;2.85;2.65;;;21.10;55.90;;;;;;5057162;28;20417;-64
2023/10/19 07:42:54;;;;;;;2.53;2.33;;;21.10;55.90;;;;;;5058308;28;20409;-65
2023/10/19 07:45:21;;;;;;;2.30;2.00;;;21.10;55.90;;;;;;5056975;28;20967;-66
2023/10/19 07:47:47;;;;;;;2.20;2.00;;;21.10;55.90;;;;;;5059084;28;20496;-67
2023/10/19 07:50:15;;;;;;;2.23;2.03;;;21.10;55.90;;;;;;5057686;28;20491;-65
2023/10/19 07:52:47;;;;;;;2.10;1.90;;;21.10;55.90;;;;;;5058587;28;20179;-64
2023/10/19 07:55:12;;;;;;;2.83;2.33;;;21.10;55.90;;;;;;5058278;28;20823;-65
2023/10/19 07:57:40;;;;;;;2.80;2.23;;;21.10;55.90;;;;;;5057782;28;20418;-67
2023/10/19 08:00:08;;;;;;;2.33;2.03;;;21.10;56.00;;;;;;5057462;28;20182;-66
2023/10/19 08:02:37;;;;;;;2.37;2.07;;;21.10;56.00;;;;;;5058114;28;20498;-62
2023/10/19 08:05:06;;;;;;;3.27;2.23;;;21.10;56.00;;;;;;5057461;28;20516;-66
2023/10/19 08:07:34;;;;;;;2.77;2.40;;;21.10;56.10;;;;;;5058089;28;20417;-65
2023/10/19 08:10:00;;;;;;;2.70;2.50;;;21.10;56.10;;;;;;5057856;28;20500;-65
2023/10/19 08:12:26;;;;;;;2.57;2.37;;;21.10;56.10;;;;;;5058297;28;20414;-65
2023/10/19 08:14:53;;;;;;;2.13;1.93;;;21.10;56.10;;;;;;5057964;28;20809;-66
2023/10/19 08:17:18;;;;;;;3.33;2.07;;;21.10;56.10;;;;;;5057910;28;20476;-65
2023/10/19 08:19:45;;;;;;;2.60;2.10;;;21.20;56.20;;;;;;5057850;28;20445;-64
2023/10/19 08:22:10;;;;;;;2.53;2.33;;;21.20;56.20;;;;;;5056752;28;20194;-65
2023/10/19 08:24:36;;;;;;;2.20;2.00;;;21.20;56.20;;;;;;5057351;28;20433;-65
2023/10/19 08:27:05;;;;;;;2.10;1.90;;;21.20;56.20;;;;;;5057283;28;20180;-64
2023/10/19 08:29:31;;;;;;;2.53;2.33;;;21.20;56.20;;;;;;5057448;28;20167;-66
2023/10/19 08:31:57;;;;;;;2.70;2.50;;;21.10;56.20;;;;;;5057617;28;20473;-66
2023/10/19 08:34:25;;;;;;;2.83;2.43;;;21.20;56.20;;;;;;5057148;28;21015;-67
2023/10/19 08:36:51;;;;;;;2.10;1.90;;;21.20;56.20;;;;;;5057293;28;20179;-66
2023/10/19 08:39:17;;;;;;;2.67;2.47;;;21.20;56.20;;;;;;5057622;28;20409;-67
2023/10/19 08:41:43;;;;;;;2.27;2.07;;;21.10;56.20;;;;;;5056982;28;20456;-65
2023/10/19 08:44:15;;;;;;;2.40;2.20;;;21.20;56.30;;;;;;5056930;28;20494;-66
2023/10/19 08:46:47;;;;;;;2.40;2.20;;;21.20;56.30;;;;;;5057313;28;20163;-64
2023/10/19 08:49:14;;;;;;;2.97;2.30;;;21.20;56.30;;;;;;5057085;28;20410;-65
2023/10/19 08:51:44;;;;;;;2.30;2.10;;;21.20;56.30;;;;;;5056784;28;20420;-66
2023/10/19 08:54:11;;;;;;;2.50;2.30;;;21.20;56.30;;;;;;5057045;28;20944;-67
2023/10/19 08:56:38;;;;;;;2.70;2.50;;;21.10;56.30;;;;;;5057038;28;20416;-66
2023/10/19 08:59:06;;;;;;;1.93;1.73;;;21.20;56.40;;;;;;5057254;28;20409;-66
2023/10/19 09:01:31;;;;;;;1.93;1.80;;;21.20;56.40;;;;;;5057293;28;20449;-65
2023/10/19 09:04:00;;;;;;;2.50;2.30;;;21.20;56.40;;;;;;5057104;28;20487;-66
2023/10/19 09:06:28;;;;;;;2.50;2.27;;;21.20;56.40;;;;;;5057371;28;20171;-64
2023/10/19 09:08:55;;;;;;;2.67;2.23;;;21.20;56.40;;;;;;5057203;28;20437;-66
2023/10/19 09:11:21;;;;;;;2.30;2.10;;;21.10;56.30;;;;;;5057468;28;20413;-65
2023/10/19 09:13:49;;;;;;;2.63;2.43;;;21.20;56.40;;;;;;5056876;28;20422;-66
2023/10/19 09:16:26;;;;;;;2.63;2.23;;;21.20;56.40;;;;;;5056942;28;20429;-65
2023/10/19 09:18:52;;;;;;;2.60;2.40;;;21.20;56.40;;;;;;5056632;28;20452;-67
2023/10/19 09:21:25;;;;;;;2.33;1.90;;;21.10;56.30;;;;;;5056896;28;20568;-65
2023/10/19 09:23:56;;;;;;;2.17;1.97;;;21.20;56.40;;;;;;5056612;28;20532;-67
2023/10/19 09:26:23;;;;;;;2.83;2.53;;;21.20;56.30;;;;;;5056308;28;20398;-64
2023/10/19 09:28:50;;;;;;;2.33;2.00;;;21.10;56.20;;;;;;5055867;28;20402;-66
2023/10/19 09:31:17;;;;;;;2.83;2.60;;;21.10;56.20;;;;;;5056050;28;20405;-66
2023/10/19 09:33:44;;;;;;;2.40;2.20;;;21.10;56.20;;;;;;5056379;28;20818;-67
2023/10/19 09:36:13;;;;;;;2.47;2.27;;;21.10;56.30;;;;;;5055694;28;20421;-66
2023/10/19 09:38:48;;;;;;;2.37;2.17;;;21.10;56.30;;;;;;5054765;28;20954;-65
2023/10/19 09:41:20;;;;;;;2.30;2.10;;;21.10;56.30;;;;;;5054913;28;20456;-66
2023/10/19 09:43:50;;;;;;;2.03;1.87;;;21.10;56.40;;;;;;5054645;28;20402;-66
2023/10/19 09:46:22;;;;;;;2.60;2.23;;;21.10;56.30;;;;;;5054162;28;20421;-65
2023/10/19 09:48:48;;;;;;;2.50;2.30;;;21.10;56.30;;;;;;5056041;28;20798;-66
2023/10/19 09:51:16;;;;;;;1.80;1.70;;;21.10;56.30;;;;;;5053803;28;20416;-66
2023/10/19 09:53:45;;;;;;;2.23;2.03;;;21.10;56.30;;;;;;5052448;28;20424;-67
2023/10/19 09:56:17;;;;;;;4.33;2.63;;;21.10;56.80;;;;;;5052640;28;20887;-68
2023/10/19 09:58:50;;;;;;;2.43;2.10;;;21.10;56.20;;;;;;5051095;28;20413;-68
2023/10/19 10:01:19;;;;;;;1.67;1.47;;;21.10;56.20;;;;;;5052283;28;20845;-66
2023/10/19 10:03:49;;;;;;;2.17;1.97;;;21.20;56.20;;;;;;5051913;28;20444;-65
2023/10/19 10:06:20;;;;;;;3.83;2.17;;;21.20;56.20;;;;;;5052310;28;20393;-67
2023/10/19 10:08:46;;;;;;;2.97;2.60;;;21.20;56.20;;;;;;5052436;28;20401;-67
2023/10/19 10:11:23;;;;;;;2.83;2.40;;;21.20;56.10;;;;;;5052268;28;20420;-67
2023/10/19 10:13:53;;;;;;;2.90;2.70;;;21.20;56.10;;;;;;5052043;28;20404;-68
2023/10/19 10:16:23;;;;;;;1.90;1.80;;;21.20;56.10;;;;;;5052061;28;20444;-68
2023/10/19 10:18:50;;;;;;;2.40;2.00;;;21.20;56.10;;;;;;5052012;28;20947;-68
2023/10/19 10:21:20;;;;;;;3.57;2.07;;;21.20;56.10;;;;;;5051887;28;20445;-67
2023/10/19 10:23:47;;;;;;;2.63;2.30;;;21.20;56.20;;;;;;5051873;28;20406;-68
2023/10/19 10:26:14;;;;;;;3.80;2.40;;;21.20;56.20;;;;;;5052031;28;20420;-68
2023/10/19 10:28:41;;;;;;;2.57;2.07;;;21.20;56.10;;;;;;5052123;28;20491;-67
2023/10/19 10:31:25;;;;;;;2.40;2.20;;;21.30;56.20;;;;;;5052351;28;20405;-66
2023/10/19 10:33:54;;;;;;;2.77;2.37;;;21.30;56.20;;;;;;5051651;28;20430;-67
2023/10/19 10:36:21;;;;;;;3.77;2.40;;;21.30;56.20;;;;;;5051636;28;20782;-67
2023/10/19 10:38:51;;;;;;;2.60;2.30;;;21.30;56.20;;;;;;5051670;28;20402;-66
2023/10/19 10:41:27;;;;;;;2.43;2.23;;;21.30;56.20;;;;;;5051693;28;20457;-68
2023/10/19 10:43:55;;;;;;;2.40;2.17;;;21.30;56.20;;;;;;5051666;28;20678;-66
2023/10/19 10:46:25;;;;;;;2.97;2.60;;;21.30;56.20;;;;;;5051975;28;20413;-66
2023/10/19 10:48:51;;;;;;;3.03;2.73;;;21.30;56.20;;;;;;5051950;28;20402;-67
2023/10/19 10:51:21;;;;;;;2.03;1.93;;;21.30;56.20;;;;;;5052110;28;20406;-67
2023/10/19 10:53:48;;;;;;;3.00;2.60;;;21.40;56.30;;;;;;5050751;28;20506;-67
2023/10/19 10:56:15;;;;;;;2.37;2.17;;;21.40;56.30;;;;;;5051914;28;20428;-67
2023/10/19 10:58:41;;;;;;;3.70;2.33;;;21.30;56.20;;;;;;5051463;28;20409;-66
2023/10/19 11:01:07;;;;;;;3.00;2.63;;;21.40;56.30;;;;;;5051708;28;20460;-66
2023/10/19 11:03:32;;;;;;;3.00;2.50;;;21.40;56.30;;;;;;5051817;28;20823;-67
2023/10/19 11:06:07;;;;;;;2.50;2.30;;;21.40;56.30;;;;;;5051779;28;20244;-65
2023/10/19 11:08:34;;;;;;;2.83;2.20;;;21.40;56.30;;;;;;5051751;28;20270;-66
2023/10/19 11:11:10;;;;;;;2.53;2.33;;;21.40;56.50;;;;;;5051827;28;20436;-67
2023/10/19 11:13:37;;;;;;;2.60;2.40;;;21.40;56.30;;;;;;5052173;28;20820;-66
2023/10/19 11:16:05;;;;;;;2.90;2.63;;;21.40;56.30;;;;;;5051858;28;20992;-65
2023/10/19 11:18:39;;;;;;;2.30;2.10;;;21.40;56.30;;;;;;5052021;28;20426;-67
2023/10/19 11:21:10;;;;;;;2.43;2.23;;;21.50;56.30;;;;;;5051584;28;20444;-68
2023/10/19 11:23:37;;;;;;;2.50;2.30;;;21.50;56.30;;;;;;5051684;28;20413;-67
2023/10/19 11:26:05;;;;;;;2.50;2.30;;;21.50;56.30;;;;;;5051652;28;20848;-65
2023/10/19 11:28:32;;;;;;;2.17;1.97;;;21.50;56.30;;;;;;5051691;28;20414;-68
2023/10/19 11:31:39;;;;;;;3.83;2.30;;;21.50;56.30;;;;;;5051724;28;20475;-68
2023/10/19 11:34:06;;;;;;;2.70;2.50;;;21.50;56.30;;;;;;5050580;28;20449;-68
2023/10/19 11:36:31;;;;;;;4.53;4.13;;;21.50;56.30;;;;;;5051447;28;20817;-68
2023/10/19 11:38:57;;;;;;;8.77;8.07;;;21.50;56.30;;;;;;5051481;28;20401;-68
2023/10/19 11:41:23;;;;;;;14.07;12.73;;;21.50;56.30;;;;;;5051417;28;20317;-67
2023/10/19 11:43:49;;;;;;;20.00;18.10;;;21.50;56.20;;;;;;5051787;28;20916;-66
2023/10/19 11:46:17;;;;;;;25.83;23.23;;;21.50;56.20;;;;;;5052022;28;20190;-67
2023/10/19 11:48:43;;;;;;;31.57;28.47;;;21.50;56.20;;;;;;5051509;28;21022;-66
2023/10/19 11:51:13;;;;;;;35.63;32.17;;;21.50;56.20;;;;;;5051778;28;20513;-67
2023/10/19 11:53:39;;;;;;;40.47;36.17;;;21.50;56.20;;;;;;5051508;28;20257;-67
2023/10/19 11:56:10;;;;;;;44.17;39.87;;;21.50;56.30;;;;;;5052187;28;20416;-68
2023/10/19 11:58:41;;;;;;;50.27;45.50;;;21.50;56.20;;;;;;5055348;28;20413;-66
2023/10/19 12:01:17;;;;;;;50.90;46.10;;;21.50;56.20;;;;;;5054912;28;20437;-68
2023/10/19 12:03:45;;;;;;;56.87;51.33;;;21.50;56.20;;;;;;5055043;28;20389;-67
2023/10/19 12:06:12;;;;;;;60.83;55.23;;;21.50;56.20;;;;;;5054448;28;20800;-67
2023/10/19 12:08:40;;;;;;;65.80;59.40;;;21.50;56.20;;;;;;5054367;28;20413;-69
2023/10/19 12:11:15;;;;;;;67.03;60.70;;;21.50;56.20;;;;;;5054440;28;20418;-67
2023/10/19 12:13:43;;;;;;;71.40;64.73;;;21.50;56.20;;;;;;5054344;28;20396;-68
2023/10/19 12:16:12;;;;;;;72.50;65.60;;;21.50;56.30;;;;;;5054576;28;20425;-67
2023/10/19 12:18:48;;;;;;;76.27;68.70;;;21.50;56.20;;;;;;5054136;28;20448;-67
2023/10/19 12:21:14;;;;;;;79.80;72.10;;;21.50;56.20;;;;;;5054175;28;20455;-68
2023/10/19 12:23:41;;;;;;;78.97;71.47;;;21.50;56.80;;;;;;5052851;28;20782;-68
2023/10/19 12:26:13;;;;;;;83.13;74.80;;;21.50;56.20;;;;;;5054243;28;20489;-68
2023/10/19 12:28:43;;;;;;;85.63;77.23;;;21.50;56.20;;;;;;5052771;28;20417;-68
2023/10/19 12:31:09;;;;;;;87.03;78.93;;;21.50;56.20;;;;;;5054156;28;20500;-68
2023/10/19 12:33:36;;;;;;;88.43;80.13;;;21.50;56.20;;;;;;5054087;28;20409;-68
2023/10/19 12:36:21;;;;;;;93.00;83.60;;;21.50;56.20;;;;;;5054041;28;20543;-68
2023/10/19 12:38:47;;;;;;;90.23;81.83;;;21.60;56.30;;;;;;5053882;28;20401;-68
2023/10/19 12:41:14;;;;;;;96.40;87.13;;;21.50;56.20;;;;;;5053845;28;20979;-67
2023/10/19 12:43:39;;;;;;;94.57;85.60;;;21.50;56.30;;;;;;5053658;28;20171;-65
2023/10/19 12:46:08;;;;;;;101.50;91.90;;;21.50;56.30;;;;;;5054528;28;20814;-66
2023/10/19 12:48:34;;;;;;;101.83;92.10;;;21.50;56.30;;;;;;5053999;28;20546;-68
2023/10/19 12:51:04;;;;;;;106.03;95.83;;;21.50;56.30;;;;;;5053714;28;20789;-67
2023/10/19 12:53:30;;;;;;;113.33;102.83;;;21.50;56.30;;;;;;5053979;28;20813;-68
2023/10/19 12:55:55;;;;;;;105.70;95.50;;;21.50;56.30;;;;;;5053253;28;20437;-68
2023/10/19 12:58:21;;;;;;;111.30;100.73;;;21.50;56.30;;;;;;5053240;28;20175;-67
2023/10/19 13:00:48;;;;;;;118.00;107.00;;;21.50;56.30;;;;;;5053723;28;20171;-68
2023/10/19 13:03:15;;;;;;;121.23;110.20;;;21.50;56.30;;;;;;5052513;28;20970;-68
2023/10/19 13:05:42;;;;;;;117.83;106.50;;;21.50;56.30;;;;;;5053534;28;20475;-68
2023/10/19 13:08:08;;;;;;;121.47;109.97;;;21.50;56.30;;;;;;5053310;28;20767;-67
2023/10/19 13:10:37;;;;;;;120.13;109.07;;;21.50;56.30;;;;;;5053627;28;20405;-66
2023/10/19 13:13:04;;;;;;;118.07;106.87;;;21.50;56.30;;;;;;5053333;28;20409;-66
2023/10/19 13:15:36;;;;;;;118.53;107.53;;;21.50;56.30;;;;;;5053313;28;20794;-67
2023/10/19 13:18:03;;;;;;;119.00;107.87;;;21.50;56.30;;;;;;5053727;28;20394;-67